Tiempo atmosférico en la estación meteorológica de Ballobar, Huesca (178 m.)



Fecha
DESCASC
Temp. máxima en grados centígrados (hora)
DESCASC
Temp. mínima en grados centígrados (hora)
DESCASC
Temp. media en grados centígrados
DESCASC
Racha de viento máxima en m/sg (hora)
DESCASC
Velocidad máxima media en intervalos de 10 minutos(hora)
DESCASC
Precipitaciones diarias en mm
DESCASC
Precipitaciones de 00:00 a 06:00 en mm
DESCASC
Precipitaciones de 06:00 a 12:00 en mm
DESCASC
Precipitaciones de 12:00 a 18:00 en mm
DESCASC
Precipitaciones de 18:00 a 24:00 en mm
DESCASC
18-02-2018 15.2 (15:50) 0.9 (07:50) 8 9.72 (20:40) 6.67 (21:50) 0 0 0 0 0
17-02-2018 17.2 (13:30) 6.7 (05:50) 12 16.67 (20:00) 11.11 (15:10) 0 0 0 0 0
16-02-2018 14.4 (17:20) 8.6 (07:40) 11.5 3.33 (13:50) 1.94 (14:00) 0.6 0.2 0.2 0.2 0
15-02-2018 18.6 (15:40) 3.1 (00:00) 10.9 4.72 (13:00) 3.06 (06:10) 0 0 0 0 0
14-02-2018 11.9 (17:30) 2.6 (00:00) 7.2 7.5 (06:20) 5 (04:00) 0 0 0 0 0
13-02-2018 5.3 (14:50) -3.4 (-00:0) 1 10.28 (00:50) 5.56 (00:50) 0 0 0 0 0
12-02-2018 13 (15:10) 3.6 (00:00) 8.3 17.5 (07:20) 11.94 (07:30) 0 0 0 0 0
11-02-2018 16.9 (15:50) -1.2 (-00:0) 7.8 14.44 (16:10) 9.17 (16:10) 0 0 0 0 0
10-02-2018 12.2 (17:00) 3.2 (00:00) 7.7 15 (00:20) 9.72 (00:20) 0 0 0 0 0
09-02-2018 8.9 (15:40) -4.1 (-00:0) 2.4 13.89 (23:30) 8.89 (23:20) 0 0 0 0 0
08-02-2018 5.9 (14:00) -3.2 (-00:0) 1.4 9.17 (00:10) 6.39 (00:10) 0 0 0 0 0
07-02-2018 9.9 (16:20) 0.8 (00:00) 5.3 12.22 (17:40) 8.06 (19:50) 0 0 0 0 0
06-02-2018 6.1 (18:10) 3.3 (00:00) 4.7 11.67 (19:10) 7.5 (20:30) 3.8 3.2 0.6 0 0
05-02-2018 6.1 (13:30) 4.5 (00:00) 5.3 5.83 (01:30) 4.17 (01:20) 5.8 0.6 1.6 0.6 3
04-02-2018 7.3 (00:00) 3.2 (00:00) 5.3 6.94 (21:00) 4.17 (21:00) 12.8 0 0.8 9.8 2.2
03-02-2018 11.4 (16:10) 2.3 (00:00) 6.8 17.22 (14:40) 11.39 (14:40) 0 0 0 0 0
02-02-2018 12.8 (16:20) 0.3 (00:00) 6.6 12.5 (19:10) 8.89 (19:10) 0 0 0 0 0
01-02-2018 9.5 (16:50) 0.9 (00:00) 5.2 8.61 (16:50) 4.72 (17:00) 0 0 0 0 0
31-01-2018 7.2 (16:00) 0.9 (00:00) 4 4.17 (15:10) 3.06 (17:30) 0 0 0 0 0
30-01-2018 8.3 (16:40) -0.5 (-00:0) 3.9 3.89 (16:00) 3.33 (16:00) 0 0 0 0 0
29-01-2018 13.3 (16:20) 0.8 (00:00) 7.1 4.72 (15:30) 3.61 (15:30) 0 0 0 0 0
28-01-2018 14 (15:40) 2.9 (00:00) 8.5 5.28 (19:50) 3.89 (19:50) 0 0 0 0 0
27-01-2018 10.1 (14:10) 2.4 (00:00) 6.3 10.56 (01:10) 6.39 (01:10) 0 0 0 0 0
26-01-2018 9.6 (14:50) 6 (00:00) 7.8 11.67 (21:40) 6.94 (04:10) 2.8 1.8 1 0 0
25-01-2018 13.2 (15:30) 2.8 (00:00) 8 8.89 (19:50) 5.56 (19:50) 4.6 0 0 0 4.6
24-01-2018 14.8 (16:00) 1.3 (00:00) 8.1 3.61 (12:00) 2.5 (10:40) 0 0 0 0 0
23-01-2018 15.6 (14:10) 6.6 (00:00) 11.1 5.28 (00:20) 3.89 (03:00) 0 0 0 0 0
22-01-2018 19 (15:00) 10 (00:00) 14.5 16.39 (01:10) 10 (00:10) 0 0 0 0 0

Gráficas

Temp. máximas Temp. mínimas Temp. medias Precipitaciones Rachas de viento máximas Velocidades máximas media en intervalos de 10 minutos

Datos horarios

Fecha y hora oficial Temperatura (ºC) Velocidad del viento (km/h) Dirección del viento Racha (km/h) Dirección de racha Precipitación (mm) Presión (hPa) Tendencia (hPa) Humedad (%)
2018-02-20 23:00:00 9.6 29 Oeste 49 Oeste 0 -- -- 64
2018-02-20 22:00:00 10.1 34 Noroeste 55 Noroeste 0 -- -- 62
2018-02-20 21:00:00 10.4 37 Noroeste 62 Noroeste 0 -- -- 63
2018-02-20 20:00:00 11.2 33 Oeste 65 Oeste 0 -- -- 61
2018-02-20 19:00:00 12.5 37 Noroeste 63 Oeste 0 -- -- 56
2018-02-20 18:00:00 14.7 37 Oeste 62 Oeste 0 -- -- 51
2018-02-20 17:00:00 16.6 35 Oeste 65 Noroeste 0 -- -- 46
2018-02-20 16:00:00 17 38 Oeste 62 Oeste 0 -- -- 46
2018-02-20 15:00:00 16.2 39 Oeste 61 Oeste 0 -- -- 48
2018-02-20 14:00:00 14.8 34 Oeste 55 Oeste 0 -- -- 53
2018-02-20 13:00:00 15.2 30 Noroeste 60 Noroeste 0 -- -- 52
2018-02-20 12:00:00 14.7 28 Oeste 41 Oeste 0 -- -- 57
2018-02-20 11:00:00 13.2 18 Noroeste 41 Noroeste 0 -- -- 64
2018-02-20 10:00:00 7.6 4 Este 10 Sur 0 -- -- 87
2018-02-20 09:00:00 5.5 7 Nordeste 10 Nordeste 0 -- -- 91
2018-02-20 08:00:00 5.3 4 Oeste 11 Oeste 0 -- -- 92
2018-02-20 07:00:00 5.6 4 Sudoeste 10 Nordeste 0 -- -- 91
2018-02-20 06:00:00 6.2 2 Oeste 9 Noroeste 0 -- -- 88
2018-02-20 05:00:00 7.4 0 Calma 12 Noroeste 0 -- -- 86
2018-02-20 04:00:00 9.1 9 Noroeste 20 Noroeste 0 -- -- 81
2018-02-20 03:00:00 10.1 10 Noroeste 22 Noroeste 0 -- -- 76
2018-02-20 02:00:00 11.1 9 Noroeste 32 Oeste 0 -- -- 72
2018-02-20 01:00:00 11.7 15 Oeste 28 Oeste 0 -- -- 70
2018-02-20 00:00:00 11.7 13 Oeste 23 Oeste 0 -- -- 72
2018-02-19 23:00:00 11.9 14 Noroeste 25 Noroeste 0 -- -- 71
2018-02-19 22:00:00 12.1 13 Noroeste 35 Oeste 0 -- -- 70
2018-02-19 21:00:00 13.2 21 Noroeste 38 Oeste 0 -- -- 66
2018-02-19 20:00:00 13.9 27 Oeste 42 Oeste 0 -- -- 63
2018-02-19 19:00:00 14.9 15 Oeste 30 Oeste 0 -- -- 59
2018-02-19 18:00:00 16.2 16 Oeste 28 Oeste 0 -- -- 54
2018-02-19 17:00:00 16.5 7 Oeste 19 Oeste 0 -- -- 53
2018-02-19 16:00:00 16.2 10 Oeste 20 Oeste 0 -- -- 55
2018-02-19 15:00:00 15.5 8 Noroeste 19 Nordeste 0 -- -- 58
2018-02-19 14:00:00 14.8 5 Noroeste 14 Nordeste 0 -- -- 59
2018-02-19 13:00:00 13.1 9 Nordeste 21 Nordeste 0 -- -- 62
2018-02-19 12:00:00 11.5 8 Oeste 19 Sur 0 -- -- 69
2018-02-19 11:00:00 8.8 8 Nordeste 13 Nordeste 0 -- -- 76
2018-02-19 10:00:00 5.7 5 Este 10 Nordeste 0 -- -- 83
2018-02-19 09:00:00 3.5 3 Nordeste 7 Nordeste 0 -- -- 94
2018-02-19 08:00:00 2.3 4 Noroeste 6 Nordeste 0 -- -- 92
2018-02-19 07:00:00 3.1 4 Noroeste 9 Noroeste 0 -- -- 92
2018-02-19 06:00:00 3.9 4 Noroeste 8 Noroeste 0 -- -- 91
2018-02-19 05:00:00 4.1 4 Noroeste 18 Oeste 0 -- -- 86
2018-02-19 04:00:00 7.5 11 Oeste 20 Oeste 0 -- -- 80
2018-02-19 03:00:00 7.4 10 Oeste 21 Oeste 0 -- -- 82
2018-02-19 02:00:00 6.9 3 Oeste 11 Sudoeste 0 -- -- 83
2018-02-19 01:00:00 8.3 9 Sudoeste 13 Oeste 0 -- -- 78
2018-02-19 00:00:00 9.4 3 Oeste 15 Sudoeste 0 -- -- 73
2018-02-18 23:00:00 10.6 8 Oeste 33 Oeste 0 -- -- 70
2018-02-18 22:00:00 11 20 Oeste 34 Noroeste 0 -- -- 68
2018-02-18 21:00:00 12 15 Oeste 35 Oeste 0 -- -- 64
2018-02-18 20:00:00 12.5 18 Oeste 27 Oeste 0 -- -- 61
2018-02-18 19:00:00 13.1 12 Sudoeste 17 Sudoeste 0 -- -- 56
2018-02-18 18:00:00 13.6 4 Oeste 9 Oeste 0 -- -- 46
2018-02-18 17:00:00 14.7 5 Oeste 14 Noroeste 0 -- -- 38
2018-02-18 16:00:00 14.7 8 Oeste 18 Noroeste 0 -- -- 43
2018-02-18 15:00:00 14.1 9 Oeste 18 Sudoeste 0 -- -- 43
2018-02-18 14:00:00 13.1 10 Oeste 22 Oeste 0 -- -- 50
2018-02-18 13:00:00 11.8 11 Noroeste 19 Sudoeste 0 -- -- 54
2018-02-18 12:00:00 10.3 11 Sudoeste 18 Sudoeste 0 -- -- 60
2018-02-18 11:00:00 8.2 10 Sudoeste 18 Sudoeste 0 -- -- 68
2018-02-18 10:00:00 5.8 8 Sur 12 Sur 0 -- -- 80
2018-02-18 09:00:00 2.7 6 Oeste 13 Oeste 0 -- -- 90
2018-02-18 08:00:00 1.3 9 Oeste 13 Sudoeste 0 -- -- 93
2018-02-18 07:00:00 1.7 8 Oeste 11 Oeste 0 -- -- 90
2018-02-18 06:00:00 1.9 3 Oeste 7 Oeste 0 -- -- 90
2018-02-18 05:00:00 2.5 3 Oeste 12 Noroeste 0 -- -- 88
2018-02-18 04:00:00 3.2 4 Oeste 11 Sudoeste 0 -- -- 85
2018-02-18 03:00:00 4.3 8 Sudoeste 17 Sudoeste 0 -- -- 82
2018-02-18 02:00:00 5.3 11 Sudoeste 17 Sudoeste 0 -- -- 77
2018-02-18 01:00:00 6.6 12 Sudoeste 19 Sudoeste 0 -- -- 71
2018-02-18 00:00:00 7.7 13 Sudoeste 22 Oeste 0 -- -- 67
2018-02-17 23:00:00 8.6 12 Sudoeste 36 Oeste 0 -- -- 63
2018-02-17 22:00:00 9.5 27 Oeste 50 Oeste 0 -- -- 59
2018-02-17 21:00:00 10.3 35 Oeste 53 Noroeste 0 -- -- 55
2018-02-17 20:00:00 11.7 39 Oeste 60 Oeste 0 -- -- 52
2018-02-17 19:00:00 13 28 Oeste 47 Oeste 0 -- -- 47
2018-02-17 18:00:00 14.1 21 Oeste 44 Oeste 0 -- -- 48
2018-02-17 17:00:00 14.9 26 Oeste 50 Oeste 0 -- -- 49
2018-02-17 16:00:00 15.9 30 Oeste 55 Oeste 0 -- -- 47
2018-02-17 15:00:00 16.5 35 Oeste 53 Oeste 0 -- -- 47
2018-02-17 14:00:00 17.1 28 Oeste 48 Oeste 0 -- -- 49
2018-02-17 13:00:00 16.8 17 Oeste 30 Oeste 0 -- -- 55
2018-02-17 12:00:00 14 7 Oeste 18 Oeste 0 -- -- 78
2018-02-17 11:00:00 11.1 4 Este 10 Nordeste 0 -- -- 96
2018-02-17 10:00:00 9.5 5 Sudoeste 11 Sudoeste 0 -- -- 99
2018-02-17 09:00:00 8.1 7 Oeste 13 Oeste 0 -- -- 99
2018-02-17 08:00:00 7.6 6 Oeste 10 Oeste 0 -- -- 98
2018-02-17 07:00:00 7 9 Oeste 14 Sudoeste 0 -- -- 98
2018-02-17 06:00:00 6.8 5 Oeste 8 Oeste 0 -- -- 98
2018-02-17 05:00:00 6.9 3 Oeste 6 Este 0 -- -- 97
2018-02-17 04:00:00 7.7 0 Calma 5 Oeste 0 -- -- 97
2018-02-17 03:00:00 8.5 0 Calma 5 Noroeste 0 -- -- 96
2018-02-17 02:00:00 8.6 2 Este 7 Oeste 0 -- -- 97
2018-02-17 01:00:00 8.8 2 Noroeste 6 Noroeste 0 -- -- 95
2018-02-17 00:00:00 9.4 0 Calma 7 Noroeste 0 -- -- 95
2018-02-16 23:00:00 9.9 0 Calma 6 Noroeste 0 -- -- 93
2018-02-16 22:00:00 10.7 0 Calma 4 Noroeste 0 -- -- 92
2018-02-16 21:00:00 11.2 4 Noroeste 5 Noroeste 0 -- -- 90
2018-02-16 20:00:00 12.4 2 Noroeste 5 Oeste 0 -- -- 85
2018-02-16 19:00:00 13.1 0 Calma 4 Oeste 0 -- -- 86
2018-02-16 18:00:00 14.3 0 Calma 4 Sur 0 -- -- 80
2018-02-16 17:00:00 14.2 2 Este 6 Sudeste 0 -- -- 80
2018-02-16 16:00:00 13.7 4 Sudeste 10 Nordeste 0.2 -- -- 85
2018-02-16 15:00:00 13.7 4 Noroeste 11 Norte 0 -- -- 81
2018-02-16 14:00:00 14.1 7 Noroeste 12 Noroeste 0 -- -- 81
2018-02-16 13:00:00 13.1 5 Nordeste 9 Nordeste 0 -- -- 83
2018-02-16 12:00:00 11.9 6 Nordeste 9 Nordeste 0 -- -- 91
2018-02-16 11:00:00 11 0 Calma 5 Este 0.2 -- -- 96
2018-02-16 10:00:00 9.3 2 Este 5 Oeste 0 -- -- 96
2018-02-16 09:00:00 8.6 2 Noroeste 3 Oeste 0 -- -- 95
2018-02-16 08:00:00 8.6 0 Calma 5 Oeste 0 -- -- 95
2018-02-16 07:00:00 8.9 5 Noroeste 8 Oeste 0 -- -- 94
2018-02-16 06:00:00 8.9 0 Calma 6 Noroeste 0.2 -- -- 94
2018-02-16 05:00:00 9 2 Oeste 3 Oeste 0 -- -- 91
2018-02-16 04:00:00 9.2 0 Calma 5 Noroeste 0 -- -- 90
2018-02-16 03:00:00 9.3 0 Calma 6 Nordeste 0 -- -- 90
2018-02-16 02:00:00 9.5 6 Nordeste 9 Nordeste 0 -- -- 87
2018-02-16 01:00:00 10.3 4 Noroeste 7 Oeste 0 -- -- 87
2018-02-16 00:00:00 10.2 5 Noroeste 8 Noroeste 0 -- -- 86
2018-02-15 23:00:00 10.8 6 Oeste 8 Sudoeste 0 -- -- 84
2018-02-15 22:00:00 11.1 2 Oeste 11 Oeste 0 -- -- 81
2018-02-15 21:00:00 12 7 Oeste 12 Sudoeste 0 -- -- 78
2018-02-15 20:00:00 13.2 3 Oeste 6 Oeste 0 -- -- 75
2018-02-15 19:00:00 14.3 2 Noroeste 6 Oeste 0 -- -- 70
2018-02-15 18:00:00 17.6 5 Este 13 Este 0 -- -- 60
2018-02-15 17:00:00 18.3 9 Este 13 Nordeste 0 -- -- 58
2018-02-15 16:00:00 18.5 5 Este 11 Este 0 -- -- 57
2018-02-15 15:00:00 17.5 6 Nordeste 16 Norte 0 -- -- 60
2018-02-15 14:00:00 16.7 6 Este 16 Este 0 -- -- 62
2018-02-15 13:00:00 15.3 10 Este 17 Este 0 -- -- 66
2018-02-15 12:00:00 12.8 8 Nordeste 12 Nordeste 0 -- -- 70
2018-02-15 11:00:00 10 8 Nordeste 12 Nordeste 0 -- -- 79
2018-02-15 10:00:00 7.5 0 Calma 10 Sudoeste 0 -- -- 94
2018-02-15 09:00:00 4.7 4 Noroeste 9 Oeste 0 -- -- 97
2018-02-15 08:00:00 3.5 7 Oeste 10 Oeste 0 -- -- 97
2018-02-15 07:00:00 3.6 3 Norte 14 Oeste 0 -- -- 95
2018-02-15 06:00:00 3.6 7 Oeste 13 Oeste 0 -- -- 96
2018-02-15 05:00:00 3.9 4 Oeste 8 Oeste 0 -- -- 95
2018-02-15 04:00:00 4.4 4 Noroeste 6 Nordeste 0 -- -- 94
2018-02-15 03:00:00 5.4 0 Calma 8 Nordeste 0 -- -- 92
2018-02-15 02:00:00 5.7 4 Noroeste 8 Noroeste 0 -- -- 91
2018-02-15 01:00:00 6 5 Oeste 8 Oeste 0 -- -- 90
2018-02-15 00:00:00 7.3 2 Oeste 15 Este 0 -- -- 85
2018-02-14 23:00:00 8.9 6 Noroeste 14 Nordeste 0 -- -- 86
2018-02-14 22:00:00 9.7 5 Oeste 9 Nordeste 0 -- -- 80
2018-02-14 21:00:00 10.8 5 Oeste 8 Oeste 0 -- -- 79
2018-02-14 20:00:00 9.8 6 Oeste 8 Oeste 0 -- -- 80
2018-02-14 19:00:00 9.9 3 Noroeste 6 Noroeste 0 -- -- 76
2018-02-14 18:00:00 11.6 4 Nordeste 5 Nordeste 0 -- -- 68
2018-02-14 17:00:00 11.8 2 Nordeste 9 Este 0 -- -- 66
2018-02-14 16:00:00 11.2 8 Este 16 Este 0 -- -- 68
2018-02-14 15:00:00 11.1 12 Este 18 Este 0 -- -- 67
2018-02-14 14:00:00 10.6 14 Nordeste 21 Este 0 -- -- 68
2018-02-14 13:00:00 10.3 15 Este 25 Este 0 -- -- 67
2018-02-14 12:00:00 9.9 10 Nordeste 20 Este 0 -- -- 69
2018-02-14 11:00:00 10.6 9 Este 13 Nordeste 0 -- -- 65
2018-02-14 10:00:00 8.3 2 Nordeste 11 Sudoeste 0 -- -- 71
2018-02-14 09:00:00 7.3 8 Sudoeste 13 Sudoeste 0 -- -- 73
2018-02-14 08:00:00 7 8 Sudoeste 22 Noroeste 0 -- -- 73
2018-02-14 07:00:00 8.2 17 Oeste 27 Oeste 0 -- -- 67
2018-02-14 06:00:00 7.7 8 Oeste 19 Sudoeste 0 -- -- 71
2018-02-14 05:00:00 7.4 14 Oeste 24 Sudoeste 0 -- -- 70
2018-02-14 04:00:00 7 18 Sudoeste 23 Oeste 0 -- -- 71
2018-02-14 03:00:00 5.1 11 Sudoeste 16 Sudoeste 0 -- -- 80
2018-02-14 02:00:00 3.3 10 Sudoeste 15 Sudoeste 0 -- -- 89
2018-02-14 01:00:00 3.1 5 Nordeste 10 Sudoeste 0 -- -- 82
2018-02-14 00:00:00 3.5 4 Oeste 13 Oeste 0 -- -- 81
2018-02-13 23:00:00 2.1 6 Oeste 9 Nordeste 0 -- -- 85
2018-02-13 22:00:00 2.8 8 Oeste 15 Oeste 0 -- -- 83
2018-02-13 21:00:00 2.1 5 Sudoeste 8 Oeste 0 -- -- 83
2018-02-13 20:00:00 2.8 5 Oeste 7 Oeste 0 -- -- 80
2018-02-13 19:00:00 3.8 5 Oeste 9 Sudoeste 0 -- -- 76
2018-02-13 18:00:00 4.6 6 Oeste 8 Oeste 0 -- -- 71
2018-02-13 17:00:00 4.7 5 Nordeste 10 Este 0 -- -- 70
2018-02-13 16:00:00 4.5 8 Nordeste 15 Nordeste 0 -- -- 71
2018-02-13 15:00:00 5.3 8 Noroeste 22 Oeste 0 -- -- 66
2018-02-13 14:00:00 5.2 7 Noroeste 12 Noroeste 0 -- -- 62
2018-02-13 13:00:00 5.2 7 Este 13 Este 0 -- -- 64
2018-02-13 12:00:00 3.9 8 Nordeste 12 Nordeste 0 -- -- 69
2018-02-13 11:00:00 2.5 6 Nordeste 10 Nordeste 0 -- -- 72
2018-02-13 10:00:00 1.1 5 Nordeste 9 Nordeste 0 -- -- 77
2018-02-13 09:00:00 -1.9 3 Sur 9 Oeste 0 -- -- 88
2018-02-13 08:00:00 -3.1 3 Sur 8 Oeste 0 -- -- 86
2018-02-13 07:00:00 -2.2 2 Oeste 9 Oeste 0 -- -- 84
2018-02-13 06:00:00 -1.8 9 Oeste 12 Sudoeste 0 -- -- 82
2018-02-13 05:00:00 -2 5 Oeste 9 Noroeste 0 -- -- 83
2018-02-13 04:00:00 -1.2 2 Oeste 9 Nordeste 0 -- -- 77
2018-02-13 03:00:00 0 6 Nordeste 10 Oeste 0 -- -- 71
2018-02-13 02:00:00 1.6 3 Nordeste 29 Noroeste 0 -- -- 64
2018-02-13 01:00:00 3.2 17 Noroeste 37 Noroeste 0 -- -- 56
2018-02-13 00:00:00 3.6 18 Noroeste 33 Oeste 0 -- -- 52
2018-02-12 23:00:00 4.2 25 Oeste 40 Oeste 0 -- -- 49
2018-02-12 22:00:00 5 25 Oeste 42 Oeste 0 -- -- 46
2018-02-12 21:00:00 5.5 26 Oeste 43 Oeste 0 -- -- 45
2018-02-12 20:00:00 6.9 29 Oeste 50 Oeste 0 -- -- 42
2018-02-12 19:00:00 8.2 33 Oeste 58 Oeste 0 -- -- 39
2018-02-12 18:00:00 10 37 Oeste 59 Oeste 0 -- -- 36
2018-02-12 17:00:00 11.7 37 Oeste 54 Oeste 0 -- -- 32
2018-02-12 16:00:00 12.5 32 Oeste 59 Oeste 0 -- -- 35
2018-02-12 15:00:00 12.8 32 Oeste 50 Oeste 0 -- -- 37
2018-02-12 14:00:00 12.2 29 Oeste 52 Oeste 0 -- -- 43
2018-02-12 13:00:00 11.2 27 Oeste 43 Oeste 0 -- -- 49
2018-02-12 12:00:00 8.4 27 Oeste 42 Oeste 0 -- -- 56
2018-02-12 11:00:00 8.3 28 Noroeste 51 Noroeste 0 -- -- 59
2018-02-12 10:00:00 7.7 33 Oeste 54 Oeste 0 -- -- 61
2018-02-12 09:00:00 7.5 32 Oeste 54 Oeste 0 -- -- 63
2018-02-12 08:00:00 7 37 Oeste 63 Oeste 0 -- -- 67
2018-02-12 07:00:00 7.3 29 Oeste 50 Noroeste 0 -- -- 68
2018-02-12 06:00:00 7.6 22 Oeste 54 Oeste 0 -- -- 67
2018-02-12 05:00:00 8.7 30 Oeste 44 Oeste 0 -- -- 63
2018-02-12 04:00:00 8.9 27 Oeste 48 Oeste 0 -- -- 66
2018-02-12 03:00:00 9.5 24 Oeste 40 Noroeste 0 -- -- 65
2018-02-12 02:00:00 10 31 Oeste 47 Oeste 0 -- -- 67
2018-02-12 01:00:00 10.4 22 Oeste 44 Oeste 0 -- -- 66
2018-02-12 00:00:00 11.3 26 Oeste 44 Oeste 0 -- -- 64
2018-02-11 23:00:00 12 23 Oeste 41 Oeste 0 -- -- 67
2018-02-11 22:00:00 12.2 23 Oeste 40 Oeste 0 -- -- 67
2018-02-11 21:00:00 12.8 24 Oeste 48 Noroeste 0 -- -- 65
2018-02-11 20:00:00 13.1 23 Oeste 40 Oeste 0 -- -- 67
2018-02-11 19:00:00 14.1 19 Oeste 47 Oeste 0 -- -- 62
2018-02-11 18:00:00 15.2 18 Oeste 39 Oeste 0 -- -- 58
2018-02-11 17:00:00 16.2 27 Oeste 52 Oeste 0 -- -- 58
2018-02-11 16:00:00 16.7 24 Oeste 49 Oeste 0 -- -- 57
2018-02-11 15:00:00 14.9 6 Nordeste 13 Este 0 -- -- 59
2018-02-11 14:00:00 12.7 6 Este 15 Nordeste 0 -- -- 62
2018-02-11 13:00:00 11.1 12 Este 16 Este 0 -- -- 64
2018-02-11 12:00:00 7.6 8 Nordeste 18 Nordeste 0 -- -- 70
2018-02-11 11:00:00 4.9 7 Nordeste 13 Este 0 -- -- 71
2018-02-11 10:00:00 2.1 6 Este 10 Nordeste 0 -- -- 78
2018-02-11 09:00:00 -0.6 5 Este 8 Nordeste 0 -- -- 93
2018-02-11 08:00:00 -1.1 3 Oeste 10 Nordeste 0 -- -- 91
2018-02-11 07:00:00 -0.4 4 Noroeste 9 Nordeste 0 -- -- 91
2018-02-11 06:00:00 0.7 0 Calma 8 Nordeste 0 -- -- 90
2018-02-11 05:00:00 0.8 0 Calma 14 Sudoeste 0 -- -- 89
2018-02-11 04:00:00 1.1 8 Oeste 10 Oeste 0 -- -- 89
2018-02-11 03:00:00 2.6 4 Norte 11 Sudoeste 0 -- -- 82
2018-02-11 02:00:00 2.6 9 Sudoeste 15 Sudoeste 0 -- -- 81
2018-02-11 01:00:00 1.5 5 Sudoeste 10 Oeste 0 -- -- 81
2018-02-11 00:00:00 3.2 3 Oeste 12 Oeste 0 -- -- 72
2018-02-10 23:00:00 4.2 8 Sudoeste 23 Noroeste 0 -- -- 66
2018-02-10 22:00:00 5.8 15 Noroeste 31 Oeste 0 -- -- 60
2018-02-10 21:00:00 6.5 24 Oeste 40 Oeste 0 -- -- 56
2018-02-10 20:00:00 7.2 17 Oeste 36 Oeste 0 -- -- 53
2018-02-10 19:00:00 8.3 18 Oeste 27 Oeste 0 -- -- 47
2018-02-10 18:00:00 10 13 Oeste 22 Oeste 0 -- -- 37
2018-02-10 17:00:00 12.2 6 Noroeste 32 Noroeste 0 -- -- 22
2018-02-10 16:00:00 11.7 17 Noroeste 32 Noroeste 0 -- -- 23
2018-02-10 15:00:00 11.4 13 Noroeste 27 Noroeste 0 -- -- 27
2018-02-10 14:00:00 11 14 Noroeste 32 Noroeste 0 -- -- 29
2018-02-10 13:00:00 10.4 13 Noroeste 28 Oeste 0 -- -- 35
2018-02-10 12:00:00 8.7 19 Noroeste 35 Noroeste 0 -- -- 45
2018-02-10 11:00:00 7.2 18 Noroeste 33 Noroeste 0 -- -- 55
2018-02-10 10:00:00 5.5 17 Noroeste 30 Oeste 0 -- -- 60
2018-02-10 09:00:00 4 13 Noroeste 34 Oeste 0 -- -- 64
2018-02-10 08:00:00 3.3 23 Oeste 38 Oeste 0 -- -- 64
2018-02-10 07:00:00 3.4 22 Oeste 36 Oeste 0 -- -- 63
2018-02-10 06:00:00 3.5 23 Oeste 33 Oeste 0 -- -- 64
2018-02-10 05:00:00 3.6 21 Oeste 40 Oeste 0 -- -- 60
2018-02-10 04:00:00 4.1 24 Oeste 42 Oeste 0 -- -- 61
2018-02-10 03:00:00 4.3 24 Oeste 39 Noroeste 0 -- -- 65
2018-02-10 02:00:00 4.6 18 Noroeste 43 Noroeste 0 -- -- 66
2018-02-10 01:00:00 5.1 30 Oeste 54 Oeste 0 -- -- 67
2018-02-10 00:00:00 5.6 31 Oeste 50 Oeste 0 -- -- 68
2018-02-09 23:00:00 6.3 27 Oeste 46 Oeste 0 -- -- 65
2018-02-09 22:00:00 4.6 6 Noroeste 22 Oeste 0 -- -- 79
2018-02-09 21:00:00 2.8 3 Sudoeste 12 Sudoeste 0 -- -- 86
2018-02-09 20:00:00 3.7 9 Oeste 16 Sudoeste 0 -- -- 77
2018-02-09 19:00:00 5.8 10 Sudoeste 18 Oeste 0 -- -- 67
2018-02-09 18:00:00 8.1 9 Oeste 22 Oeste 0 -- -- 57
2018-02-09 17:00:00 8.7 12 Oeste 24 Oeste 0 -- -- 52
2018-02-09 16:00:00 8.4 6 Oeste 12 Oeste 0 -- -- 53
2018-02-09 15:00:00 7.7 6 Este 12 Nordeste 0 -- -- 57
2018-02-09 14:00:00 6.8 6 Este 13 Este 0 -- -- 61
2018-02-09 13:00:00 5.1 7 Este 10 Este 0 -- -- 68
2018-02-09 12:00:00 3.2 6 Nordeste 10 Nordeste 0 -- -- 74
2018-02-09 11:00:00 1.1 7 Nordeste 11 Nordeste 0 -- -- 83
2018-02-09 10:00:00 -0.8 4 Sur 13 Sudoeste 0 -- -- 88
2018-02-09 09:00:00 -2.8 9 Oeste 12 Oeste 0 -- -- 92
2018-02-09 08:00:00 -4.1 5 Oeste 11 Oeste 0 -- -- 91
2018-02-09 07:00:00 -3.6 7 Oeste 14 Sudoeste 0 -- -- 91
2018-02-09 06:00:00 -2.6 12 Oeste 16 Sudoeste 0 -- -- 90
2018-02-09 05:00:00 -3.1 10 Oeste 13 Oeste 0 -- -- 91
2018-02-09 04:00:00 -3.1 3 Oeste 6 Oeste 0 -- -- 90
2018-02-09 03:00:00 -2.5 3 Oeste 13 Oeste 0 -- -- 89
2018-02-09 02:00:00 -2 8 Oeste 11 Oeste 0 -- -- 90
2018-02-09 01:00:00 -2.1 4 Oeste 8 Noroeste 0 -- -- 91
2018-02-09 00:00:00 -1.5 5 Noroeste 8 Noroeste 0 -- -- 90
2018-02-08 23:00:00 -0.7 8 Oeste 17 Oeste 0 -- -- 88
2018-02-08 22:00:00 -0.6 3 Oeste 6 Noroeste 0 -- -- 86
2018-02-08 21:00:00 0.9 0 Calma 6 Noroeste 0 -- -- 79
2018-02-08 20:00:00 3.2 4 Noroeste 15 Sudoeste 0 -- -- 73
2018-02-08 19:00:00 4.6 12 Oeste 15 Oeste 0 -- -- 70
2018-02-08 18:00:00 5.1 2 Sudeste 16 Este 0 -- -- 65
2018-02-08 17:00:00 5.4 12 Este 17 Nordeste 0 -- -- 61
2018-02-08 16:00:00 5.5 10 Este 15 Este 0 -- -- 61
2018-02-08 15:00:00 5.6 7 Nordeste 15 Este 0 -- -- 61
2018-02-08 14:00:00 5.9 8 Nordeste 14 Este 0 -- -- 62
2018-02-08 13:00:00 5.1 10 Este 15 Este 0 -- -- 65
2018-02-08 12:00:00 4.4 6 Este 13 Este 0 -- -- 69
2018-02-08 11:00:00 2 6 Este 12 Nordeste 0 -- -- 75
2018-02-08 10:00:00 -0.2 10 Nordeste 13 Nordeste 0 -- -- 83
2018-02-08 09:00:00 -2.1 2 Este 6 Oeste 0 -- -- 89
2018-02-08 08:00:00 -3 5 Nordeste 6 Nordeste 0 -- -- 88
2018-02-08 07:00:00 -2.2 3 Noroeste 8 Nordeste 0 -- -- 85
2018-02-08 06:00:00 -1.4 6 Nordeste 23 Noroeste 0 -- -- 80
2018-02-08 05:00:00 0.6 14 Noroeste 26 Oeste 0 -- -- 72
2018-02-08 04:00:00 0.6 12 Oeste 25 Noroeste 0 -- -- 71
2018-02-08 03:00:00 0.4 5 Noroeste 26 Noroeste 0 -- -- 70
2018-02-08 02:00:00 1.1 14 Noroeste 31 Noroeste 0 -- -- 68
2018-02-08 01:00:00 1.7 8 Noroeste 33 Noroeste 0 -- -- 66
2018-02-08 00:00:00 2.4 25 Oeste 41 Oeste 0 -- -- 66
2018-02-07 23:00:00 2.7 25 Oeste 39 Oeste 0 -- -- 65
2018-02-07 22:00:00 3.3 26 Oeste 41 Noroeste 0 -- -- 61
2018-02-07 21:00:00 3.6 26 Oeste 38 Oeste 0 -- -- 58
2018-02-07 20:00:00 4.3 27 Oeste 41 Oeste 0 -- -- 52
2018-02-07 19:00:00 5.3 23 Oeste 33 Oeste 0 -- -- 49
2018-02-07 18:00:00 7.1 24 Oeste 44 Oeste 0 -- -- 44
2018-02-07 17:00:00 9.3 23 Oeste 38 Oeste 0 -- -- 35
2018-02-07 16:00:00 9.8 14 Oeste 32 Oeste 0 -- -- 35
2018-02-07 15:00:00 9.3 17 Oeste 29 Oeste 0 -- -- 37
2018-02-07 14:00:00 8.9 17 Oeste 28 Sudoeste 0 -- -- 36
2018-02-07 13:00:00 8 18 Oeste 28 Oeste 0 -- -- 41
2018-02-07 12:00:00 6.8 14 Noroeste 31 Oeste 0 -- -- 50
2018-02-07 11:00:00 4.8 17 Noroeste 34 Oeste 0 -- -- 59
2018-02-07 10:00:00 3.4 16 Noroeste 29 Noroeste 0 -- -- 61
2018-02-07 09:00:00 1.9 6 Noroeste 20 Oeste 0 -- -- 68
2018-02-07 08:00:00 1.5 10 Noroeste 32 Oeste 0 -- -- 68
2018-02-07 07:00:00 1.4 12 Oeste 21 Oeste 0 -- -- 70
2018-02-07 06:00:00 0.9 7 Sudoeste 22 Oeste 0 -- -- 72
2018-02-07 05:00:00 1.9 9 Oeste 33 Noroeste 0 -- -- 67
2018-02-07 04:00:00 2.3 17 Noroeste 41 Oeste 0 -- -- 65
2018-02-07 03:00:00 2.5 24 Noroeste 40 Noroeste 0 -- -- 64
2018-02-07 02:00:00 2.7 21 Oeste 35 Oeste 0 -- -- 64
2018-02-07 01:00:00 2.8 19 Oeste 37 Oeste 0 -- -- 64
2018-02-07 00:00:00 3.3 26 Oeste 41 Oeste 0 -- -- 62
2018-02-06 23:00:00 4.2 26 Oeste 40 Oeste 0 -- -- 59
2018-02-06 22:00:00 4.7 25 Oeste 40 Oeste 0 -- -- 58
2018-02-06 21:00:00 5.2 25 Oeste 40 Oeste 0 -- -- 57
2018-02-06 20:00:00 5.6 24 Oeste 42 Oeste 0 -- -- 59
2018-02-06 19:00:00 5.9 25 Oeste 39 Oeste 0 -- -- 58
2018-02-06 18:00:00 6 15 Oeste 28 Oeste 0 -- -- 61
2018-02-06 17:00:00 5.9 13 Oeste 27 Oeste 0 -- -- 64
2018-02-06 16:00:00 6 18 Oeste 35 Noroeste 0 -- -- 61
2018-02-06 15:00:00 5.7 26 Oeste 41 Noroeste 0 -- -- 67
2018-02-06 14:00:00 6 23 Noroeste 41 Oeste 0 -- -- 70
2018-02-06 13:00:00 5.7 22 Oeste 40 Oeste 0 -- -- 76
2018-02-06 12:00:00 5.1 21 Noroeste 32 Oeste 0 -- -- 81
2018-02-06 11:00:00 4.5 20 Noroeste 34 Noroeste 0 -- -- 86
2018-02-06 10:00:00 4 21 Noroeste 34 Noroeste 0.2 -- -- 92
2018-02-06 09:00:00 4.3 19 Noroeste 31 Oeste 0.2 -- -- 95
2018-02-06 08:00:00 4.7 16 Noroeste 26 Noroeste 0.2 -- -- 95
2018-02-06 07:00:00 4.9 4 Noroeste 21 Noroeste 0 -- -- 96
2018-02-06 06:00:00 5.1 14 Noroeste 25 Noroeste 0.4 -- -- 96
2018-02-06 05:00:00 5.1 13 Noroeste 21 Noroeste 0.8 -- -- 96
2018-02-06 04:00:00 5.1 10 Noroeste 17 Oeste 0.6 -- -- 96
2018-02-06 03:00:00 5 9 Noroeste 19 Oeste 0.4 -- -- 96
2018-02-06 02:00:00 5 9 Noroeste 16 Norte 0.8 -- -- 95
2018-02-06 01:00:00 5.3 9 Noroeste 14 Noroeste 0.2 -- -- 95
2018-02-06 00:00:00 5.5 9 Noroeste 16 Noroeste 0.2 -- -- 95
2018-02-05 23:00:00 5.6 3 Noroeste 9 Oeste 0.2 -- -- 96
2018-02-05 22:00:00 5.6 0 Calma 8 Noroeste 0.4 -- -- 96
2018-02-05 21:00:00 5.7 5 Noroeste 6 Noroeste 0.2 -- -- 95
2018-02-05 20:00:00 5.9 2 Nordeste 9 Este 0 -- -- 95
2018-02-05 19:00:00 5.9 2 Oeste 11 Este 2 -- -- 95
2018-02-05 18:00:00 6.1 9 Este 14 Este 0.2 -- -- 95
2018-02-05 17:00:00 6.1 0 Calma 8 Sudoeste 0.2 -- -- 94
2018-02-05 16:00:00 5.9 6 Oeste 9 Sudoeste 0 -- -- 94
2018-02-05 15:00:00 6 6 Sudoeste 13 Sur 0 -- -- 93
2018-02-05 14:00:00 6 9 Nordeste 12 Nordeste 0 -- -- 94
2018-02-05 13:00:00 5.9 6 Este 10 Este 0.2 -- -- 94
2018-02-05 12:00:00 5.6 4 Nordeste 8 Norte 1.4 -- -- 95
2018-02-05 11:00:00 5.3 5 Sudoeste 8 Oeste 0 -- -- 95
2018-02-05 10:00:00 5 4 Este 10 Norte 0.2 -- -- 95
2018-02-05 09:00:00 4.7 0 Calma 10 Noroeste 0 -- -- 95
2018-02-05 08:00:00 4.5 3 Este 11 Norte 0 -- -- 96
2018-02-05 07:00:00 4.6 0 Calma 4 Nordeste 0 -- -- 95
2018-02-05 06:00:00 4.7 0 Calma 5 Oeste 0.2 -- -- 94
2018-02-05 05:00:00 4.8 5 Norte 11 Noroeste 0 -- -- 93
2018-02-05 04:00:00 4.7 0 Calma 11 Nordeste 0.2 -- -- 93
2018-02-05 03:00:00 4.9 8 Nordeste 14 Nordeste 0.2 -- -- 92
2018-02-05 02:00:00 5 12 Nordeste 21 Nordeste 0 -- -- 92
2018-02-05 01:00:00 5.1 10 Nordeste 15 Nordeste 0 -- -- 92
2018-02-05 00:00:00 5 6 Nordeste 11 Este 0 -- -- 93
2018-02-04 23:00:00 5.1 5 Este 15 Nordeste 0 -- -- 94
2018-02-04 22:00:00 5.3 6 Este 21 Sudeste 0.6 -- -- 94
2018-02-04 21:00:00 5.3 15 Este 25 Este 0.8 -- -- 95
2018-02-04 20:00:00 5.7 11 Este 18 Este 0.6 -- -- 94
2018-02-04 19:00:00 5.7 3 Este 15 Nordeste 0.2 -- -- 95
2018-02-04 18:00:00 5.6 4 Norte 21 Noroeste 2.2 -- -- 95
2018-02-04 17:00:00 5.4 10 Noroeste 21 Noroeste 2.8 -- -- 94
2018-02-04 16:00:00 5.8 13 Noroeste 20 Noroeste 1.8 -- -- 93
2018-02-04 15:00:00 6.2 7 Noroeste 11 Noroeste 1.2 -- -- 92
2018-02-04 14:00:00 6.2 6 Noroeste 9 Noroeste 1.2 -- -- 91
2018-02-04 13:00:00 5.9 2 Nordeste 5 Nordeste 0.6 -- -- 92
2018-02-04 12:00:00 5.4 0 Calma 6 Nordeste 0.8 -- -- 92
2018-02-04 11:00:00 4.9 3 Nordeste 9 Nordeste 0 -- -- 89
2018-02-04 10:00:00 4.3 7 Nordeste 11 Nordeste 0 -- -- 89
2018-02-04 09:00:00 3.6 0 Calma 11 Norte 0 -- -- 89
2018-02-04 08:00:00 4.2 6 Oeste 15 Sudoeste 0 -- -- 89
2018-02-04 07:00:00 4.1 9 Sudoeste 13 Sudoeste 0 -- -- 90
2018-02-04 06:00:00 3.4 6 Oeste 12 Oeste 0 -- -- 88
2018-02-04 05:00:00 3.2 4 Oeste 10 Sudoeste 0 -- -- 87
2018-02-04 04:00:00 4.2 4 Oeste 13 Oeste 0 -- -- 83
2018-02-04 03:00:00 5.1 3 Noroeste 12 Norte 0 -- -- 79
2018-02-04 02:00:00 7 8 Oeste 24 Noroeste 0 -- -- 72
2018-02-04 01:00:00 5.6 10 Oeste 18 Noroeste 0 -- -- 81
2018-02-04 00:00:00 7.3 12 Noroeste 30 Noroeste 0 -- -- 73
2018-02-03 23:00:00 7.8 15 Noroeste 26 Oeste 0 -- -- 72
2018-02-03 22:00:00 7.8 13 Oeste 43 Sudoeste 0 -- -- 73
2018-02-03 21:00:00 8.1 21 Oeste 38 Oeste 0 -- -- 72
2018-02-03 20:00:00 8.1 17 Oeste 33 Oeste 0 -- -- 71
2018-02-03 19:00:00 8.6 15 Oeste 50 Oeste 0 -- -- 69
2018-02-03 18:00:00 10.2 18 Oeste 37 Oeste 0 -- -- 57
2018-02-03 17:00:00 10.6 30 Oeste 53 Oeste 0 -- -- 53
2018-02-03 16:00:00 11.3 30 Oeste 62 Oeste 0 -- -- 51
2018-02-03 15:00:00 11.2 37 Oeste 62 Oeste 0 -- -- 49
2018-02-03 14:00:00 10.2 34 Oeste 53 Oeste 0 -- -- 51
2018-02-03 13:00:00 9.3 37 Oeste 57 Oeste 0 -- -- 56
2018-02-03 12:00:00 9.2 28 Noroeste 54 Oeste 0 -- -- 57
2018-02-03 11:00:00 7.7 38 Oeste 58 Oeste 0 -- -- 64
2018-02-03 10:00:00 6.4 30 Oeste 49 Oeste 0 -- -- 69
2018-02-03 09:00:00 4.8 20 Oeste 31 Oeste 0 -- -- 72
2018-02-03 08:00:00 2.3 8 Sudoeste 32 Oeste 0 -- -- 77
2018-02-03 07:00:00 4.3 24 Oeste 44 Oeste 0 -- -- 68
2018-02-03 06:00:00 4 21 Oeste 45 Oeste 0 -- -- 69
2018-02-03 05:00:00 3.8 30 Oeste 46 Oeste 0 -- -- 71
2018-02-03 04:00:00 3.9 32 Oeste 49 Oeste 0 -- -- 70
2018-02-03 03:00:00 3.5 27 Oeste 40 Oeste 0 -- -- 69
2018-02-03 02:00:00 3.3 14 Noroeste 43 Oeste 0 -- -- 69
2018-02-03 01:00:00 4 26 Oeste 39 Oeste 0 -- -- 65
2018-02-03 00:00:00 3.9 23 Oeste 44 Oeste 0 -- -- 65
2018-02-02 23:00:00 3.6 12 Oeste 31 Oeste 0 -- -- 63
2018-02-02 22:00:00 4.5 23 Noroeste 35 Noroeste 0 -- -- 53
2018-02-02 21:00:00 4.8 19 Oeste 34 Oeste 0 -- -- 48
2018-02-02 20:00:00 6 23 Oeste 45 Oeste 0 -- -- 44
2018-02-02 19:00:00 7.2 22 Oeste 34 Oeste 0 -- -- 37
2018-02-02 18:00:00 10.2 13 Oeste 23 Noroeste 0 -- -- 26
2018-02-02 17:00:00 12.2 13 Noroeste 26 Noroeste 0 -- -- 23
2018-02-02 16:00:00 12.6 13 Noroeste 38 Oeste 0 -- -- 21
2018-02-02 15:00:00 12.3 18 Oeste 35 Oeste 0 -- -- 28
2018-02-02 14:00:00 11.6 18 Oeste 33 Oeste 0 -- -- 32
2018-02-02 13:00:00 9.8 20 Oeste 38 Oeste 0 -- -- 47
2018-02-02 12:00:00 7.1 23 Oeste 39 Oeste 0 -- -- 60
2018-02-02 11:00:00 5 17 Oeste 30 Oeste 0 -- -- 68
2018-02-02 10:00:00 3.4 22 Oeste 33 Oeste 0 -- -- 77
2018-02-02 09:00:00 2.5 17 Oeste 27 Noroeste 0 -- -- 84
2018-02-02 08:00:00 1.4 11 Oeste 16 Oeste 0 -- -- 91
2018-02-02 07:00:00 0.7 3 Sudoeste 6 Oeste 0 -- -- 93
2018-02-02 06:00:00 0.3 3 Sudoeste 4 Sudoeste 0 -- -- 93
2018-02-02 05:00:00 0.6 0 Calma 4 Noroeste 0 -- -- 92
2018-02-02 04:00:00 1.1 0 Calma 4 Noroeste 0 -- -- 91
2018-02-02 03:00:00 1.4 0 Calma 5 Oeste 0 -- -- 89
2018-02-02 02:00:00 2.1 0 Calma 4 Sur 0 -- -- 85
2018-02-02 01:00:00 2.8 3 Sudoeste 13 Oeste 0 -- -- 83
2018-02-02 00:00:00 3.5 6 Sudoeste 18 Noroeste 0 -- -- 79
2018-02-01 23:00:00 3.6 9 Oeste 15 Oeste 0 -- -- 80
2018-02-01 22:00:00 4.7 5 Oeste 10 Oeste 0 -- -- 76
2018-02-01 21:00:00 6.1 3 Noroeste 18 Noroeste 0 -- -- 71
2018-02-01 20:00:00 7 7 Norte 23 Noroeste 0 -- -- 67
2018-02-01 19:00:00 7.9 8 Norte 27 Noroeste 0 -- -- 62
2018-02-01 18:00:00 7.9 5 Nordeste 15 Nordeste 0 -- -- 71
2018-02-01 17:00:00 8.9 17 Norte 31 Noroeste 0 -- -- 73
2018-02-01 16:00:00 7.2 9 Nordeste 19 Nordeste 0 -- -- 89
2018-02-01 15:00:00 7 4 Sudoeste 10 Nordeste 0 -- -- 91
2018-02-01 14:00:00 6.2 6 Nordeste 9 Nordeste 0 -- -- 93
2018-02-01 13:00:00 5.3 5 Nordeste 8 Nordeste 0 -- -- 97
2018-02-01 12:00:00 4 4 Nordeste 10 Nordeste 0 -- -- 99
2018-02-01 11:00:00 2.7 4 Nordeste 12 Nordeste 0 -- -- 99
2018-02-01 10:00:00 2.6 2 Noroeste 12 Sudoeste 0 -- -- 100
2018-02-01 09:00:00 1.2 6 Sudoeste 14 Sur 0 -- -- 100
2018-02-01 08:00:00 1.1 2 Sur 7 Sudeste 0 -- -- 99
2018-02-01 07:00:00 1.2 2 Este 13 Sudoeste 0 -- -- 99
2018-02-01 06:00:00 1.1 5 Sudoeste 21 Sudoeste 0 -- -- 99
2018-02-01 05:00:00 1.2 7 Sudoeste 11 Sudoeste 0 -- -- 99
2018-02-01 04:00:00 1.8 4 Sudoeste 14 Oeste 0 -- -- 99
2018-02-01 03:00:00 1.9 8 Sudoeste 10 Sudoeste 0 -- -- 99
2018-02-01 02:00:00 2.1 4 Sudoeste 13 Oeste 0 -- -- 99
2018-02-01 01:00:00 2.9 5 Noroeste 12 Noroeste 0 -- -- 98
2018-02-01 00:00:00 2.9 3 Sudoeste 8 Nordeste 0 -- -- 99
2018-01-31 23:00:00 2.7 4 Este 10 Sudeste 0 -- -- 98
2018-01-31 22:00:00 2.7 5 Sudoeste 15 Sudoeste 0 -- -- 98
2018-01-31 21:00:00 3.1 7 Sur 11 Sudoeste 0 -- -- 98
2018-01-31 20:00:00 3.6 3 Sudeste 10 Nordeste 0 -- -- 97
2018-01-31 19:00:00 4.3 7 Nordeste 12 Este 0 -- -- 96
2018-01-31 18:00:00 5.6 9 Nordeste 14 Nordeste 0 -- -- 94
2018-01-31 17:00:00 6.9 6 Este 10 Este 0 -- -- 94
2018-01-31 16:00:00 7.2 6 Este 15 Sur 0 -- -- 98
2018-01-31 15:00:00 6 5 Sudeste 12 Sur 0 -- -- 99
2018-01-31 14:00:00 4.6 6 Nordeste 9 Nordeste 0 -- -- 99
2018-01-31 13:00:00 3.8 3 Norte 5 Sudoeste 0 -- -- 99
2018-01-31 12:00:00 2.2 4 Este 8 Nordeste 0 -- -- 99
2018-01-31 11:00:00 1.8 3 Nordeste 7 Nordeste 0 -- -- 99
2018-01-31 10:00:00 1.7 3 Sur 6 Oeste 0 -- -- 99
2018-01-31 09:00:00 1 4 Sudoeste 8 Sudoeste 0 -- -- 99
2018-01-31 08:00:00 0.9 6 Sudoeste 10 Oeste 0 -- -- 99
2018-01-31 07:00:00 1.1 6 Noroeste 8 Noroeste 0 -- -- 99
2018-01-31 06:00:00 1.5 3 Noroeste 6 Noroeste 0 -- -- 98
2018-01-31 05:00:00 2.2 4 Oeste 8 Sudoeste 0 -- -- 98
2018-01-31 04:00:00 2.1 3 Sudoeste 6 Sur 0 -- -- 98
2018-01-31 03:00:00 2.2 4 Oeste 8 Noroeste 0 -- -- 98
2018-01-31 02:00:00 2.5 0 Calma 3 Este 0 -- -- 98
2018-01-31 01:00:00 2.3 0 Calma 3 Sudeste 0 -- -- 97
2018-01-31 00:00:00 2.2 2 Este 4 Nordeste 0 -- -- 97
2018-01-30 23:00:00 1.8 0 Calma 5 Nordeste 0 -- -- 96
2018-01-30 22:00:00 1.5 0 Calma 5 Noroeste 0 -- -- 96
2018-01-30 21:00:00 3.1 4 Noroeste 6 Noroeste 0 -- -- 95
2018-01-30 20:00:00 3.7 3 Noroeste 5 Noroeste 0 -- -- 94
2018-01-30 19:00:00 4.8 0 Calma 10 Nordeste 0 -- -- 93
2018-01-30 18:00:00 6.6 7 Nordeste 13 Nordeste 0 -- -- 90
2018-01-30 17:00:00 7.8 11 Este 14 Este 0 -- -- 85
2018-01-30 16:00:00 7.7 12 Nordeste 14 Nordeste 0 -- -- 89
2018-01-30 15:00:00 5.7 10 Nordeste 14 Nordeste 0 -- -- 97
2018-01-30 14:00:00 5 9 Nordeste 12 Este 0 -- -- 99
2018-01-30 13:00:00 3.7 5 Nordeste 9 Nordeste 0 -- -- 99
2018-01-30 12:00:00 2.5 5 Nordeste 9 Nordeste 0 -- -- 99
2018-01-30 11:00:00 1.1 5 Nordeste 11 Nordeste 0 -- -- 98
2018-01-30 10:00:00 1.3 4 Oeste 9 Sudoeste 0 -- -- 98
2018-01-30 09:00:00 0.5 0 Calma 9 Oeste 0 -- -- 98
2018-01-30 08:00:00 0.4 5 Oeste 10 Oeste 0 -- -- 97
2018-01-30 07:00:00 0 10 Oeste 12 Noroeste 0 -- -- 97
2018-01-30 06:00:00 -0.3 2 Sudoeste 6 Noroeste 0 -- -- 96
2018-01-30 05:00:00 0.2 3 Oeste 8 Oeste 0 -- -- 96
2018-01-30 04:00:00 0.8 5 Oeste 8 Noroeste 0 -- -- 96
2018-01-30 03:00:00 1.3 3 Oeste 9 Oeste 0 -- -- 96
2018-01-30 02:00:00 1.9 3 Noroeste 8 Noroeste 0 -- -- 95
2018-01-30 01:00:00 2.3 5 Noroeste 7 Noroeste 0 -- -- 95
2018-01-30 00:00:00 3.1 6 Oeste 8 Oeste 0 -- -- 94
2018-01-29 23:00:00 3.9 2 Noroeste 9 Noroeste 0 -- -- 93
2018-01-29 22:00:00 4.9 4 Oeste 7 Noroeste 0 -- -- 91
2018-01-29 21:00:00 5.9 6 Noroeste 8 Noroeste 0 -- -- 89
2018-01-29 20:00:00 6.5 5 Noroeste 7 Noroeste 0 -- -- 87
2018-01-29 19:00:00 8 3 Oeste 6 Oeste 0 -- -- 82
2018-01-29 18:00:00 11.5 5 Nordeste 12 Norte 0 -- -- 71
2018-01-29 17:00:00 12.6 8 Nordeste 14 Nordeste 0 -- -- 67
2018-01-29 16:00:00 13.1 10 Nordeste 17 Nordeste 0 -- -- 66
2018-01-29 15:00:00 12.4 12 Nordeste 14 Nordeste 0 -- -- 68
2018-01-29 14:00:00 10.5 8 Nordeste 12 Este 0 -- -- 74
2018-01-29 13:00:00 8.5 7 Este 13 Este 0 -- -- 78
2018-01-29 12:00:00 7.2 8 Este 12 Nordeste 0 -- -- 81
2018-01-29 11:00:00 5.3 7 Este 11 Este 0 -- -- 86
2018-01-29 10:00:00 3 4 Sudoeste 10 Sudoeste 0 -- -- 93
2018-01-29 09:00:00 1.4 6 Oeste 12 Oeste 0 -- -- 95
2018-01-29 08:00:00 0.8 8 Oeste 15 Oeste 0 -- -- 93
2018-01-29 07:00:00 1.5 9 Oeste 13 Oeste 0 -- -- 93
2018-01-29 06:00:00 1.9 8 Oeste 10 Oeste 0 -- -- 93
2018-01-29 05:00:00 2.5 8 Oeste 12 Oeste 0 -- -- 92
2018-01-29 04:00:00 2.9 8 Oeste 13 Oeste 0 -- -- 90
2018-01-29 03:00:00 3.2 9 Oeste 12 Oeste 0 -- -- 91
2018-01-29 02:00:00 3.4 6 Oeste 13 Oeste 0 -- -- 89
2018-01-29 01:00:00 4.4 10 Oeste 14 Oeste 0 -- -- 88
2018-01-29 00:00:00 4.9 8 Oeste 13 Oeste 0 -- -- 86
2018-01-28 23:00:00 5.8 9 Oeste 14 Oeste 0 -- -- 84
2018-01-28 22:00:00 6.5 6 Oeste 12 Oeste 0 -- -- 81
2018-01-28 21:00:00 7.5 8 Oeste 18 Sudoeste 0 -- -- 78
2018-01-28 20:00:00 8.7 13 Sudoeste 19 Sudoeste 0 -- -- 75
2018-01-28 19:00:00 9.8 12 Sudoeste 17 Sudoeste 0 -- -- 72
2018-01-28 18:00:00 11.8 8 Sudoeste 15 Sudoeste 0 -- -- 63
2018-01-28 17:00:00 13.3 12 Sudoeste 18 Sudoeste 0 -- -- 54
2018-01-28 16:00:00 13.6 12 Sudoeste 17 Sudoeste 0 -- -- 55
2018-01-28 15:00:00 13.1 7 Sur 12 Sudoeste 0 -- -- 54
2018-01-28 14:00:00 11.6 5 Sudoeste 11 Sudoeste 0 -- -- 59
2018-01-28 13:00:00 9.9 5 Este 11 Nordeste 0 -- -- 65
2018-01-28 12:00:00 8.2 4 Este 8 Nordeste 0 -- -- 73
2018-01-28 11:00:00 5.7 5 Nordeste 8 Nordeste 0 -- -- 83
2018-01-28 10:00:00 4.5 4 Nordeste 6 Nordeste 0 -- -- 87
2018-01-28 09:00:00 3.9 7 Oeste 14 Sudoeste 0 -- -- 89
2018-01-28 08:00:00 3.1 5 Oeste 9 Sudoeste 0 -- -- 90
2018-01-28 07:00:00 4.7 7 Oeste 10 Oeste 0 -- -- 86
2018-01-28 06:00:00 4.7 3 Oeste 14 Oeste 0 -- -- 81
2018-01-28 05:00:00 4.6 8 Oeste 15 Oeste 0 -- -- 81
2018-01-28 04:00:00 5 3 Sudeste 14 Oeste 0 -- -- 83
2018-01-28 03:00:00 4.3 4 Este 9 Nordeste 0 -- -- 91
2018-01-28 02:00:00 4.4 3 Nordeste 13 Oeste 0 -- -- 91
2018-01-28 01:00:00 3.6 2 Sudoeste 6 Noroeste 0 -- -- 92
2018-01-28 00:00:00 2.9 3 Sur 6 Sudoeste 0 -- -- 90
2018-01-27 23:00:00 4 0 Calma 11 Noroeste 0 -- -- 89
2018-01-27 22:00:00 4.5 2 Oeste 6 Norte 0 -- -- 89
2018-01-27 21:00:00 6 0 Calma 8 Oeste 0 -- -- 84
2018-01-27 20:00:00 7 4 Nordeste 13 Este 0 -- -- 80
2018-01-27 19:00:00 7.1 8 Nordeste 15 Este 0 -- -- 80
2018-01-27 18:00:00 8 9 Nordeste 15 Este 0 -- -- 77
2018-01-27 17:00:00 8.9 9 Este 12 Este 0 -- -- 73
2018-01-27 16:00:00 9.5 6 Este 10 Nordeste 0 -- -- 69
2018-01-27 15:00:00 9.7 5 Nordeste 13 Nordeste 0 -- -- 64
2018-01-27 14:00:00 9.5 5 Este 15 Nordeste 0 -- -- 64
2018-01-27 13:00:00 7.1 9 Nordeste 15 Nordeste 0 -- -- 77
2018-01-27 12:00:00 7.3 4 Sudoeste 16 Noroeste 0 -- -- 68
2018-01-27 11:00:00 6.3 3 Sudoeste 12 Oeste 0 -- -- 71
2018-01-27 10:00:00 3.8 6 Sudoeste 9 Sudoeste 0 -- -- 82
2018-01-27 09:00:00 2.8 7 Oeste 10 Oeste 0 -- -- 83
2018-01-27 08:00:00 3.1 4 Oeste 23 Nordeste 0 -- -- 78
2018-01-27 07:00:00 5.1 5 Oeste 28 Noroeste 0 -- -- 72
2018-01-27 06:00:00 5.3 17 Noroeste 35 Oeste 0 -- -- 74
2018-01-27 05:00:00 5.2 11 Noroeste 30 Noroeste 0 -- -- 74
2018-01-27 04:00:00 5.3 11 Noroeste 28 Noroeste 0 -- -- 72
2018-01-27 03:00:00 5.6 13 Noroeste 30 Noroeste 0 -- -- 71
2018-01-27 02:00:00 6 17 Noroeste 38 Oeste 0 -- -- 72
2018-01-27 01:00:00 6.4 22 Oeste 37 Noroeste 0 -- -- 73
2018-01-27 00:00:00 6 18 Noroeste 42 Noroeste 0 -- -- 75
2018-01-26 23:00:00 6.2 20 Noroeste 41 Oeste 0 -- -- 74
2018-01-26 22:00:00 6.7 23 Noroeste 42 Oeste 0 -- -- 73
2018-01-26 21:00:00 7.6 24 Oeste 36 Oeste 0 -- -- 68
2018-01-26 20:00:00 8.4 18 Oeste 30 Oeste 0 -- -- 63
2018-01-26 19:00:00 8.7 17 Oeste 30 Oeste 0 -- -- 64
2018-01-26 18:00:00 9 17 Oeste 26 Oeste 0 -- -- 66
2018-01-26 17:00:00 9.2 15 Oeste 24 Oeste 0 -- -- 66
2018-01-26 16:00:00 9.3 7 Oeste 22 Oeste 0 -- -- 68
2018-01-26 15:00:00 9.4 15 Oeste 37 Oeste 0 -- -- 71
2018-01-26 14:00:00 9.1 15 Oeste 27 Oeste 0 -- -- 73
2018-01-26 13:00:00 8.4 16 Oeste 30 Oeste 0 -- -- 77
2018-01-26 12:00:00 7.8 15 Oeste 34 Oeste 0 -- -- 77
2018-01-26 11:00:00 7.6 16 Oeste 31 Oeste 0 -- -- 80
2018-01-26 10:00:00 6.6 16 Oeste 28 Oeste 0 -- -- 87
2018-01-26 09:00:00 6.3 22 Oeste 32 Oeste 0.4 -- -- 89
2018-01-26 08:00:00 6.4 16 Oeste 27 Oeste 0.4 -- -- 89
2018-01-26 07:00:00 6.8 12 Oeste 22 Noroeste 0.2 -- -- 88
2018-01-26 06:00:00 7.2 14 Noroeste 25 Oeste 0 -- -- 86
2018-01-26 05:00:00 6.8 14 Oeste 39 Oeste 0 -- -- 88
2018-01-26 04:00:00 6.8 23 Oeste 36 Oeste 0.4 -- -- 88
2018-01-26 03:00:00 7 20 Oeste 31 Oeste 0.6 -- -- 90
2018-01-26 02:00:00 8 19 Oeste 33 Oeste 0.2 -- -- 93
2018-01-26 01:00:00 8.3 4 Oeste 9 Oeste 0.6 -- -- 95
2018-01-26 00:00:00 8.6 0 Calma 11 Oeste 0.6 -- -- 94
2018-01-25 23:00:00 8.7 8 Oeste 18 Noroeste 1.8 -- -- 93
2018-01-25 22:00:00 9.1 11 Noroeste 25 Oeste 1.2 -- -- 92
2018-01-25 21:00:00 9.8 13 Noroeste 26 Oeste 1 -- -- 92
2018-01-25 20:00:00 10.6 18 Noroeste 32 Oeste 0 -- -- 87
2018-01-25 19:00:00 11.4 4 Oeste 18 Noroeste 0 -- -- 80
2018-01-25 18:00:00 11.9 10 Noroeste 14 Noroeste 0 -- -- 76
2018-01-25 17:00:00 12.8 3 Noroeste 12 Nordeste 0 -- -- 72
2018-01-25 16:00:00 13.1 6 Nordeste 17 Nordeste 0 -- -- 72
2018-01-25 15:00:00 13 8 Nordeste 17 Este 0 -- -- 72
2018-01-25 14:00:00 12.2 8 Nordeste 17 Nordeste 0 -- -- 79
2018-01-25 13:00:00 9.7 4 Este 9 Nordeste 0 -- -- 84
2018-01-25 12:00:00 8 4 Nordeste 8 Nordeste 0 -- -- 87
2018-01-25 11:00:00 6.8 6 Nordeste 9 Nordeste 0 -- -- 92
2018-01-25 10:00:00 5.6 6 Nordeste 10 Nordeste 0 -- -- 95
2018-01-25 09:00:00 4.7 4 Nordeste 7 Nordeste 0 -- -- 96
2018-01-25 08:00:00 4.3 4 Nordeste 10 Nordeste 0 -- -- 96
2018-01-25 07:00:00 4.3 5 Este 8 Nordeste 0 -- -- 97
2018-01-25 06:00:00 3.7 2 Este 6 Nordeste 0 -- -- 96
2018-01-25 05:00:00 3.1 4 Nordeste 8 Nordeste 0 -- -- 96
2018-01-25 04:00:00 2.8 3 Oeste 7 Oeste 0 -- -- 95
2018-01-25 03:00:00 3.2 2 Oeste 8 Nordeste 0 -- -- 96
2018-01-25 02:00:00 3.8 5 Oeste 7 Oeste 0 -- -- 95
2018-01-25 01:00:00 4.5 0 Calma 8 Oeste 0 -- -- 94
2018-01-25 00:00:00 5.3 5 Noroeste 8 Noroeste 0 -- -- 93
2018-01-24 23:00:00 5.8 3 Noroeste 6 Noroeste 0 -- -- 92
2018-01-24 22:00:00 6.6 4 Noroeste 6 Noroeste 0 -- -- 91
2018-01-24 21:00:00 7.8 2 Nordeste 6 Noroeste 0 -- -- 87
2018-01-24 20:00:00 8.8 3 Oeste 8 Noroeste 0 -- -- 85
2018-01-24 19:00:00 10.1 2 Noroeste 5 Oeste 0 -- -- 80
2018-01-24 18:00:00 13.1 2 Este 10 Este 0 -- -- 71
2018-01-24 17:00:00 14.6 8 Este 12 Nordeste 0 -- -- 66
2018-01-24 16:00:00 14.8 9 Este 12 Nordeste 0 -- -- 64
2018-01-24 15:00:00 14.5 5 Este 9 Nordeste 0 -- -- 66
2018-01-24 14:00:00 12.9 7 Este 10 Este 0 -- -- 71
2018-01-24 13:00:00 11 5 Este 13 Este 0 -- -- 76
2018-01-24 12:00:00 7.9 9 Nordeste 13 Nordeste 0 -- -- 90
2018-01-24 11:00:00 4.7 5 Nordeste 12 Nordeste 0 -- -- 97
2018-01-24 10:00:00 3.4 5 Este 7 Nordeste 0 -- -- 97
2018-01-24 09:00:00 1.6 4 Este 6 Nordeste 0 -- -- 97
2018-01-24 08:00:00 1.9 2 Noroeste 6 Oeste 0 -- -- 96
2018-01-24 07:00:00 2.6 0 Calma 6 Oeste 0 -- -- 97
2018-01-24 06:00:00 2.8 4 Noroeste 8 Oeste 0 -- -- 96
2018-01-24 05:00:00 3.6 6 Noroeste 9 Noroeste 0 -- -- 96
2018-01-24 04:00:00 3.7 0 Calma 6 Noroeste 0 -- -- 95
2018-01-24 03:00:00 4.3 2 Oeste 6 Oeste 0 -- -- 95
2018-01-24 02:00:00 5.1 6 Noroeste 7 Noroeste 0 -- -- 94
2018-01-24 01:00:00 5.5 0 Calma 5 Este 0 -- -- 93
2018-01-24 00:00:00 6.9 2 Este 4 Este 0 -- -- 92
2018-01-23 23:00:00 8.2 0 Calma 6 Nordeste 0 -- -- 91
2018-01-23 22:00:00 8.8 0 Calma 3 Este 0 -- -- 91
2018-01-23 21:00:00 9.4 0 Calma 6 Noroeste 0 -- -- 87
2018-01-23 20:00:00 10.9 4 Oeste 6 Oeste 0 -- -- 84
2018-01-23 19:00:00 13.1 3 Nordeste 10 Nordeste 0 -- -- 77
2018-01-23 18:00:00 14.3 8 Nordeste 11 Este 0 -- -- 74
2018-01-23 17:00:00 15.4 5 Este 11 Este 0 -- -- 70
2018-01-23 16:00:00 15.4 7 Este 12 Este 0 -- -- 70
2018-01-23 15:00:00 15 9 Nordeste 13 Nordeste 0 -- -- 71
2018-01-23 14:00:00 15.5 7 Este 15 Este 0 -- -- 70
2018-01-23 13:00:00 14.3 8 Nordeste 12 Nordeste 0 -- -- 73
2018-01-23 12:00:00 12.1 6 Nordeste 9 Nordeste 0 -- -- 79
2018-01-23 11:00:00 9.9 5 Este 9 Nordeste 0 -- -- 83
2018-01-23 10:00:00 8.6 6 Este 10 Oeste 0 -- -- 87
2018-01-23 09:00:00 7 5 Oeste 17 Oeste 0 -- -- 93
2018-01-23 08:00:00 6.7 10 Oeste 15 Oeste 0 -- -- 93
2018-01-23 07:00:00 7.2 3 Nordeste 8 Noroeste 0 -- -- 91
2018-01-23 06:00:00 8.9 6 Nordeste 10 Norte 0 -- -- 87
2018-01-23 05:00:00 10.2 3 Noroeste 12 Noroeste 0 -- -- 85
2018-01-23 04:00:00 11.2 9 Oeste 17 Sudoeste 0 -- -- 82
2018-01-23 03:00:00 9.7 14 Sudoeste 19 Sudoeste 0 -- -- 82
2018-01-23 02:00:00 10.6 14 Sudoeste 19 Sudoeste 0 -- -- 79
2018-01-23 01:00:00 12.1 9 Oeste 19 Oeste 0 -- -- 75
2018-01-23 00:00:00 12.9 5 Sudoeste 39 Oeste 0 -- -- 70
2018-01-22 23:00:00 14.6 28 Oeste 46 Oeste 0 -- -- 66
2018-01-22 22:00:00 14.9 31 Oeste 50 Oeste 0 -- -- 65
2018-01-22 21:00:00 15.1 31 Oeste 51 Oeste 0 -- -- 65
2018-01-22 20:00:00 15 16 Oeste 38 Sudoeste 0 -- -- 65
2018-01-22 19:00:00 14.6 10 Sudoeste 22 Sudoeste 0 -- -- 63
2018-01-22 18:00:00 16.3 6 Sur 34 Sudoeste 0 -- -- 55
2018-01-22 17:00:00 17.4 19 Oeste 46 Oeste 0 -- -- 52
2018-01-22 16:00:00 18.5 28 Oeste 47 Oeste 0 -- -- 47
2018-01-22 15:00:00 19 30 Oeste 44 Noroeste 0 -- -- 46
2018-01-22 14:00:00 18.8 26 Oeste 40 Noroeste 0 -- -- 47
2018-01-22 13:00:00 17.7 26 Oeste 39 Oeste 0 -- -- 51
2018-01-22 12:00:00 15.9 10 Sudoeste 27 Sudoeste 0 -- -- 60
2018-01-22 11:00:00 13.6 22 Oeste 27 Sudoeste 0 -- -- 68
2018-01-22 10:00:00 12 17 Oeste 31 Sudoeste 0 -- -- 73
2018-01-22 09:00:00 10.6 21 Sudoeste 31 Sudoeste 0 -- -- 78
2018-01-22 08:00:00 10.4 19 Oeste 30 Oeste 0 -- -- 79
2018-01-22 07:00:00 10.4 18 Sudoeste 32 Sudoeste 0 -- -- 80
2018-01-22 06:00:00 10.4 17 Oeste 28 Sudoeste 0 -- -- 81
2018-01-22 05:00:00 10.6 17 Sudoeste 37 Sudoeste 0 -- -- 80
2018-01-22 04:00:00 11.9 30 Sudoeste 38 Sudoeste 0 -- -- 75
2018-01-22 03:00:00 13.7 19 Sudoeste 47 Oeste 0 -- -- 68
2018-01-22 02:00:00 14.8 25 Oeste 59 Oeste 0 -- -- 64
2018-01-22 01:00:00 15 30 Oeste 51 Oeste 0 -- -- 63
2018-01-22 00:00:00 14.8 34 Oeste 57 Oeste 0 -- -- 64